Taisei — JD4195 — position and weather

sailwx.info

Track history (hours):
 
Tides and Currents Weather Stations Pressure Air Temp Water Temp Dewpoint Dewpoint Depression Visibility Wind Speed Wind Dir Waves Ship Positions

Taisei

Last reported at 2018-Jul-23 08:27 UTC. Time now 2018-Jul-23 15:19 UTC.
Position N 35°35' E 140°06'.

Length 41 m; draft 3.6 m.

Type: Tug. MMSI: 431009691.

Date/timePositionNaut miles runAvg speedWind from/ knotsBaromVisibWave heightAir tempDewpointWater temp
2018-Jul-23 08:27N 35°35' E 140°06'8 6.3
2018-Jul-23 07:12N 35°32' E 139°57'1 6.1
2018-Jul-23 07:00N 35°32' E 139°56'5 0.8
2018-Jul-23 00:14N 35°31' E 140°02'0 0.7
2018-Jul-23 00:00N 35°31' E 140°02'3 3.3
2018-Jul-22 23:15N 35°32' E 139°59'4 0.2
2018-Jul-22 04:29N 35°29' E 139°58'0 0.5
2018-Jul-22 03:29N 35°28' E 139°58'1 0.7
2018-Jul-22 02:39N 35°29' E 139°59'0 0.0
2018-Jul-22 00:30N 35°29' E 139°59'2 3.1
2018-Jul-21 23:59N 35°29' E 140°01'0 0.4
2018-Jul-21 23:29N 35°29' E 140°00'4 8.6
2018-Jul-21 23:00N 35°33' E 140°03'5 0.3
2018-Jul-21 05:25N 35°29' E 139°58'4 1.0
2018-Jul-21 01:45N 35°32' E 139°58'2 7.2
2018-Jul-21 01:30N 35°31' E 139°56'0 0.9
2018-Jul-21 01:00N 35°31' E 139°56'0 0.1
2018-Jul-21 00:30N 35°31' E 139°56'1 0.1
2018-Jul-20 03:57N 35°30' E 139°57'1 1.9
2018-Jul-20 03:30N 35°29' E 139°58'1 1.1
2018-Jul-20 03:00N 35°29' E 139°58'2 3.3
2018-Jul-20 02:30N 35°29' E 140°00'0 0.0
2018-Jul-20 01:59N 35°29' E 140°00'0 0.2
2018-Jul-20 01:26N 35°29' E 140°00'1 2.3
2018-Jul-20 00:51N 35°30' E 139°59'0 1.1
2018-Jul-20 00:29N 35°30' E 139°59'1 2.7
2018-Jul-20 00:00N 35°29' E 140°00'0 0.7
2018-Jul-19 23:29N 35°29' E 140°00'1 2.4
2018-Jul-19 22:59N 35°30' E 140°00'7 0.4
2018-Jul-19 06:37N 35°35' E 140°06'1 6.2
2018-Jul-19 06:28N 35°35' E 140°05'1 1.0
2018-Jul-19 05:57N 35°36' E 140°06'0 0.1
2018-Jul-19 05:27N 35°36' E 140°06'9 0.2
2018-Jul-17 08:48N 35°31' E 139°56'0 0.0
2018-Jul-17 08:27N 35°31' E 139°56'0 0.0
2018-Jul-17 07:57N 35°31' E 139°56'0 0.1
2018-Jul-17 07:30N 35°31' E 139°56'0 0.1
2018-Jul-17 07:00N 35°31' E 139°56'0 0.3
2018-Jul-17 06:30N 35°30' E 139°56'2 3.2
2018-Jul-17 05:59N 35°30' E 139°54'0 0.5
2018-Jul-17 05:30N 35°30' E 139°54'0 0.1
2018-Jul-17 04:59N 35°30' E 139°54'0 0.0
2018-Jul-17 04:26N 35°30' E 139°54'0 0.0
2018-Jul-17 03:59N 35°30' E 139°54'0 0.1
2018-Jul-17 03:30N 35°30' E 139°54'0 0.1
2018-Jul-17 03:00N 35°30' E 139°54'0 0.6
2018-Jul-17 02:23N 35°30' E 139°54'1 2.0
2018-Jul-17 02:00N 35°30' E 139°55'0 0.5
2018-Jul-17 01:21N 35°30' E 139°55'2 4.3
2018-Jul-17 00:56N 35°29' E 139°53'1 2.4
2018-Jul-17 00:29N 35°30' E 139°54'5 0.2
2018-Jul-15 23:49N 35°33' E 139°59'3 1.8
2018-Jul-15 21:53N 35°32' E 140°03'4 0.3
2018-Jul-15 08:02N 35°35' E 140°06'1 4.5
2018-Jul-15 07:55N 35°35' E 140°05'6 7.1
2018-Jul-15 07:07N 35°33' E 139°59'2 8.1
2018-Jul-15 06:53N 35°32' E 139°57'2 4.1
2018-Jul-15 06:29N 35°32' E 139°55'3 5.7
2018-Jul-15 06:00N 35°33' E 139°58'7 1.9
2018-Jul-15 02:28N 35°35' E 140°06'8 8.3
2018-Jul-15 01:30N 35°32' E 139°57'3 5.2
2018-Jul-15 01:01N 35°31' E 139°54'10 0.4
2018-Jul-13 22:12N 35°36' E 140°05'7 7.6
2018-Jul-13 21:18N 35°32' E 139°58'0 1.2
2018-Jul-13 20:55N 35°32' E 139°58'  
Track history (hours):
 
Tides and Currents Weather Stations Pressure Air Temp Water Temp Dewpoint Dewpoint Depression Visibility Wind Speed Wind Dir Waves Ship Positions

Taisei

Last reported at 2018-Jul-23 08:27 UTC. Time now 2018-Jul-23 15:19 UTC.
Position N 35°35' E 140°06'.

Length 41 m; draft 3.6 m.

Type: Tug. MMSI: 431009691.

Date/timePositionNaut miles runAvg speedWind from/ knotsBaromVisibWave heightAir tempDewpointWater temp
2018-Jul-23 08:27N 35°35' E 140°06'8 6.3
2018-Jul-23 07:12N 35°32' E 139°57'1 6.1
2018-Jul-23 07:00N 35°32' E 139°56'5 0.8
2018-Jul-23 00:14N 35°31' E 140°02'0 0.7
2018-Jul-23 00:00N 35°31' E 140°02'3 3.3
2018-Jul-22 23:15N 35°32' E 139°59'4 0.2
2018-Jul-22 04:29N 35°29' E 139°58'0 0.5
2018-Jul-22 03:29N 35°28' E 139°58'1 0.7
2018-Jul-22 02:39N 35°29' E 139°59'0 0.0
2018-Jul-22 00:30N 35°29' E 139°59'2 3.1
2018-Jul-21 23:59N 35°29' E 140°01'0 0.4
2018-Jul-21 23:29N 35°29' E 140°00'4 8.6
2018-Jul-21 23:00N 35°33' E 140°03'5 0.3
2018-Jul-21 05:25N 35°29' E 139°58'4 1.0
2018-Jul-21 01:45N 35°32' E 139°58'2 7.2
2018-Jul-21 01:30N 35°31' E 139°56'0 0.9
2018-Jul-21 01:00N 35°31' E 139°56'0 0.1
2018-Jul-21 00:30N 35°31' E 139°56'1 0.1
2018-Jul-20 03:57N 35°30' E 139°57'1 1.9
2018-Jul-20 03:30N 35°29' E 139°58'1 1.1
2018-Jul-20 03:00N 35°29' E 139°58'2 3.3
2018-Jul-20 02:30N 35°29' E 140°00'0 0.0
2018-Jul-20 01:59N 35°29' E 140°00'0 0.2
2018-Jul-20 01:26N 35°29' E 140°00'1 2.3
2018-Jul-20 00:51N 35°30' E 139°59'0 1.1
2018-Jul-20 00:29N 35°30' E 139°59'1 2.7
2018-Jul-20 00:00N 35°29' E 140°00'0 0.7
2018-Jul-19 23:29N 35°29' E 140°00'1 2.4
2018-Jul-19 22:59N 35°30' E 140°00'7 0.4
2018-Jul-19 06:37N 35°35' E 140°06'1 6.2
2018-Jul-19 06:28N 35°35' E 140°05'1 1.0
2018-Jul-19 05:57N 35°36' E 140°06'0 0.1
2018-Jul-19 05:27N 35°36' E 140°06'9 0.2
2018-Jul-17 08:48N 35°31' E 139°56'0 0.0
2018-Jul-17 08:27N 35°31' E 139°56'0 0.0
2018-Jul-17 07:57N 35°31' E 139°56'0 0.1
2018-Jul-17 07:30N 35°31' E 139°56'0 0.1
2018-Jul-17 07:00N 35°31' E 139°56'0 0.3
2018-Jul-17 06:30N 35°30' E 139°56'2 3.2
2018-Jul-17 05:59N 35°30' E 139°54'0 0.5
2018-Jul-17 05:30N 35°30' E 139°54'0 0.1
2018-Jul-17 04:59N 35°30' E 139°54'0 0.0
2018-Jul-17 04:26N 35°30' E 139°54'0 0.0
2018-Jul-17 03:59N 35°30' E 139°54'0 0.1
2018-Jul-17 03:30N 35°30' E 139°54'0 0.1
2018-Jul-17 03:00N 35°30' E 139°54'0 0.6
2018-Jul-17 02:23N 35°30' E 139°54'1 2.0
2018-Jul-17 02:00N 35°30' E 139°55'0 0.5
2018-Jul-17 01:21N 35°30' E 139°55'2 4.3
2018-Jul-17 00:56N 35°29' E 139°53'1 2.4
2018-Jul-17 00:29N 35°30' E 139°54'5 0.2
2018-Jul-15 23:49N 35°33' E 139°59'3 1.8
2018-Jul-15 21:53N 35°32' E 140°03'4 0.3
2018-Jul-15 08:02N 35°35' E 140°06'1 4.5
2018-Jul-15 07:55N 35°35' E 140°05'6 7.1
2018-Jul-15 07:07N 35°33' E 139°59'2 8.1
2018-Jul-15 06:53N 35°32' E 139°57'2 4.1
2018-Jul-15 06:29N 35°32' E 139°55'3 5.7
2018-Jul-15 06:00N 35°33' E 139°58'7 1.9
2018-Jul-15 02:28N 35°35' E 140°06'8 8.3
2018-Jul-15 01:30N 35°32' E 139°57'3 5.2
2018-Jul-15 01:01N 35°31' E 139°54'10 0.4
2018-Jul-13 22:12N 35°36' E 140°05'7 7.6
2018-Jul-13 21:18N 35°32' E 139°58'0 1.2
2018-Jul-13 20:55N 35°32' E 139°58'  

Dump ship's entire track history